עמוד ראשי
METAR-TAF:

METAR-TAF

שדות תעופה :

נמל התעופה הבינלאומי כריסטיאנו רונאלדו

פונשל, מדיירה, פורטוגל

קו רוחב: 32-41-52N, קו אורך: 016-46-28W, גובה: 59מטר

תצפית מזג אוויר נוכחית

הדו"ח נערך לפני 31דקות, בשעה 23:30 UTC
רוח 12קשר מכיוון צפון/צפון-מזרח, משתנה בין צפון ו צפון-מזרח
טמפרטורת 19 צלסיוס
לחות 73%
לחץ 1024 hPa
ראות 10 קילומטר או יותר
עננים פזורים בגובה 1500רגל

METAR: LPMA 262330Z 02012KT 350V050 9999 SCT015 19/14 Q1024

זמן: 01:01 (00:01 UTC)

תחזית

הדו"ח נערך לפני 1 שעות ו 1דקות, בשעה 23:00 UTC
תחזית בתוקף מ 27 ב 00 UTC עד 27 ב 24 UTC
רוח 13קשר מכיוון צפון/צפון-מזרח
ראות 10 קילומטר או יותר
עננים פזורים בגובה 1500רגל
הסתברות 40% :
זמנית מ -
27 ב 08 UTC עד 27 ב 24 UTC
רוח 17קשר מכיוון צפון/צפון-מזרח עם משבים עד 27קשר
עננים בינוניים בגובה 1500רגל

TAF: LPMA 262300Z 2700/2724 02013KT 9999 SCT015 PROB40 TEMPO 2708/2724 02017G27KT BKN015

תצפיות ותחזיות מזג אוויר לגבי יותר מ- 4,000 שדות תעופה ברחבי העולם. דוחות METAR ו- TAF.

התחנות הזמינות מסומנות בנקודות צהובות ואדומות על גבי המפה.

העבר את העכבר לנקודה הצבעונית על מנת לראות את שם התחנה.

לאחר מכן, לחץ כדי לראות את תוכן ואת תחזיות מזג האוויר.

כדי לשנות את המפה: לחץ על הכפתורים הירוקים עם הפלוס השחור כדי להתקרב; על הכפתור הירוק עם המקף כדי להתרחק; או בחיצים הירוקים למפות סמוכות.


METAR-TAF: